Time;durP1;ratioP1;P1;durP2;ratioP2;P2;SDS_P1;SDS_P2;PMS_P1;PMS_P2;Temp;Humidity;BMP_temperature;BMP_pressure;BME280_temperature;BME280_humidity;BME280_pressure;Samples;Min_cycle;Max_cycle;Signal;HPM_P1;HPM_P2
2024/03/05 00:00:43;;;;;;;31.67;23.13;;;;;22.30;100117.00;;;;2058223;28;20219;-58
2024/03/05 00:01:43;;;;;;;32.80;23.70;;;;;22.20;100111.00;;;;2058651;28;20285;-58
2024/03/05 00:02:44;;;;;;;33.87;24.10;;;;;22.20;100107.00;;;;2052733;28;20885;-58
2024/03/05 00:03:45;;;;;;;31.80;23.10;;;;;22.20;100119.00;;;;2036802;28;20231;-57
2024/03/05 00:04:46;;;;;;;31.57;23.00;;;;;22.20;100112.00;;;;2051681;28;20215;-59
2024/03/05 00:05:47;;;;;;;34.33;22.73;;;;;22.20;100116.00;;;;2053637;28;20489;-58
2024/03/05 00:06:47;;;;;;;30.63;22.95;;;;;22.20;100113.00;;;;2051169;28;20298;-58
2024/03/05 00:07:48;;;;;;;34.03;25.07;;;;;22.20;100120.00;;;;2043895;28;20298;-59
2024/03/05 00:08:48;;;;;;;33.63;24.33;;;;;22.20;100120.00;;;;2041879;28;20231;-58
2024/03/05 00:09:48;;;;;;;31.30;22.70;;;;;22.20;100120.00;;;;2051622;28;20230;-58
2024/03/05 00:10:49;;;;;;;32.40;24.60;;;;;22.20;100117.00;;;;2053786;28;20237;-57
2024/03/05 00:11:49;;;;;;;29.67;21.70;;;;;22.20;100121.00;;;;2052049;28;20651;-58
2024/03/05 00:12:49;;;;;;;35.07;24.00;;;;;22.20;100125.00;;;;2051545;28;20668;-63
2024/03/05 00:13:51;;;;;;;32.50;23.50;;;;;22.20;100127.00;;;;2051790;28;20219;-63
2024/03/05 00:14:51;;;;;;;31.25;22.55;;;;;22.20;100118.00;;;;2064953;28;20738;-57
2024/03/05 00:15:52;;;;;;;32.57;22.10;;;;;22.20;100127.00;;;;2056764;28;20215;-57
2024/03/05 00:16:52;;;;;;;31.77;23.17;;;;;22.20;100055.00;;;;2051879;28;20290;-58
2024/03/05 00:17:52;;;;;;;31.17;21.47;;;;;22.20;100126.00;;;;2052170;28;20471;-58
2024/03/05 00:18:54;;;;;;;32.20;22.87;;;;;22.20;100126.00;;;;2044093;28;20235;-58
2024/03/05 00:19:54;;;;;;;29.30;22.00;;;;;22.20;100133.00;;;;2057814;28;20736;-58
2024/03/05 00:20:57;;;;;;;28.80;22.40;;;;;22.20;100154.00;;;;2053643;28;20227;-58
2024/03/05 00:21:57;;;;;;;30.30;22.30;;;;;22.20;100132.00;;;;2046196;28;20659;-59
2024/03/05 00:22:58;;;;;;;30.27;23.17;;;;;22.20;100129.00;;;;2053763;28;20211;-58
2024/03/05 00:23:58;;;;;;;31.63;22.10;;;;;22.20;100128.00;;;;2037502;28;20228;-58
2024/03/05 00:24:59;;;;;;;34.50;22.97;;;;;22.10;100119.00;;;;2051395;28;20506;-59
2024/03/05 00:25:59;;;;;;;31.97;22.97;;;;;22.10;100128.00;;;;2051889;28;20212;-58
2024/03/05 00:27:00;;;;;;;28.53;21.57;;;;;22.20;100136.00;;;;2048110;28;21163;-58
2024/03/05 00:28:00;;;;;;;28.03;21.20;;;;;22.10;100131.00;;;;2051760;28;20937;-58
2024/03/05 00:29:02;;;;;;;30.27;22.43;;;;;22.10;100124.00;;;;2042019;28;20684;-58
2024/03/05 00:30:04;;;;;;;31.25;21.80;;;;;22.10;100124.00;;;;2052802;28;20219;-58
2024/03/05 00:31:04;;;;;;;30.40;21.48;;;;;22.10;100111.00;;;;2053203;28;20212;-58
2024/03/05 00:32:05;;;;;;;28.70;20.63;;;;;22.10;100126.00;;;;2039917;28;20577;-58
2024/03/05 00:33:06;;;;;;;28.93;21.80;;;;;22.10;100120.00;;;;2049352;28;20219;-59
2024/03/05 00:34:06;;;;;;;27.10;20.10;;;;;22.10;100119.00;;;;2051591;28;20222;-58
2024/03/05 00:35:07;;;;;;;27.87;20.43;;;;;22.10;100125.00;;;;2059296;28;20590;-58
2024/03/05 00:36:08;;;;;;;26.80;20.27;;;;;22.10;100122.00;;;;2049326;28;20266;-59
2024/03/05 00:37:08;;;;;;;33.00;21.40;;;;;22.10;100121.00;;;;2048911;28;21056;-59
2024/03/05 00:38:08;;;;;;;32.60;22.27;;;;;22.10;100125.00;;;;2051202;28;20216;-56
2024/03/05 00:39:09;;;;;;;31.77;21.70;;;;;22.10;100124.00;;;;2042793;28;20227;-58
2024/03/05 00:40:10;;;;;;;28.38;20.95;;;;;22.10;100122.00;;;;2052160;28;20212;-59
2024/03/05 00:41:11;;;;;;;31.73;22.05;;;;;22.10;100137.00;;;;2052927;28;20651;-58
2024/03/05 00:42:11;;;;;;;25.23;20.00;;;;;22.10;100129.00;;;;2055489;28;20227;-58
2024/03/05 00:43:11;;;;;;;28.90;21.40;;;;;22.10;100142.00;;;;2055625;28;20235;-58
2024/03/05 00:44:12;;;;;;;29.10;21.10;;;;;22.10;100135.00;;;;2046218;28;20219;-58
2024/03/05 00:45:16;;;;;;;30.10;21.40;;;;;22.10;100138.00;;;;2051210;28;20277;-59
2024/03/05 00:46:17;;;;;;;28.55;20.35;;;;;22.10;100143.00;;;;2051283;28;20230;-57
2024/03/05 00:47:18;;;;;;;27.87;21.40;;;;;22.10;100140.00;;;;2055058;28;20224;-59
2024/03/05 00:48:19;;;;;;;27.77;20.77;;;;;22.10;100136.00;;;;2052724;28;20257;-59
2024/03/05 00:49:20;;;;;;;31.00;21.20;;;;;22.10;100145.00;;;;2049647;28;20545;-58
2024/03/05 00:50:20;;;;;;;29.42;21.23;;;;;22.10;100133.00;;;;2060031;28;20265;-59
2024/03/05 00:51:20;;;;;;;25.60;19.27;;;;;22.10;100137.00;;;;2052422;28;20306;-59
2024/03/05 00:52:21;;;;;;;29.40;21.90;;;;;22.00;100132.00;;;;2051763;28;20286;-59
2024/03/05 00:53:21;;;;;;;28.63;21.60;;;;;22.10;100137.00;;;;2051223;28;20758;-57
2024/03/05 00:54:22;;;;;;;32.73;22.60;;;;;22.00;100145.00;;;;2042286;28;21087;-58
2024/03/05 00:55:22;;;;;;;24.97;18.67;;;;;22.00;100131.00;;;;2048192;28;20363;-59
2024/03/05 00:56:22;;;;;;;28.37;21.10;;;;;22.00;100138.00;;;;2056411;28;20211;-58
2024/03/05 00:57:24;;;;;;;29.00;20.30;;;;;22.00;100127.00;;;;2055195;28;20301;-59
2024/03/05 00:58:24;;;;;;;28.90;21.33;;;;;22.00;100137.00;;;;2044030;28;20222;-58
2024/03/05 00:59:25;;;;;;;26.77;20.73;;;;;22.00;100126.00;;;;2050304;28;20409;-59
2024/03/05 01:00:25;;;;;;;26.00;19.37;;;;;22.00;100137.00;;;;2052341;28;20293;-59
2024/03/05 01:01:25;;;;;;;27.40;19.53;;;;;21.30;100135.00;;;;2053693;28;20239;-58
2024/03/05 01:02:26;;;;;;;30.27;20.47;;;;;22.00;100138.00;;;;2052836;28;20326;-57
2024/03/05 01:03:26;;;;;;;26.77;20.13;;;;;22.00;100131.00;;;;2048612;28;20246;-58
2024/03/05 01:04:27;;;;;;;28.00;21.43;;;;;22.00;100132.00;;;;2052381;28;20254;-58
2024/03/05 01:05:27;;;;;;;28.83;20.57;;;;;22.00;100140.00;;;;2049651;28;20235;-59
2024/03/05 01:06:28;;;;;;;25.80;18.83;;;;;22.00;100134.00;;;;2059397;28;20222;-59
2024/03/05 01:07:28;;;;;;;29.00;20.93;;;;;22.00;100153.00;;;;2052122;28;20324;-57
2024/03/05 01:08:28;;;;;;;24.27;18.87;;;;;22.00;100138.00;;;;2041655;28;20755;-59
2024/03/05 01:09:30;;;;;;;26.73;20.00;;;;;22.00;100139.00;;;;2052095;28;20649;-58
2024/03/05 01:10:30;;;;;;;26.45;19.65;;;;;22.00;100146.00;;;;2053353;28;20700;-59
2024/03/05 01:11:31;;;;;;;27.90;20.43;;;;;22.00;100140.00;;;;2052155;28;20231;-58
2024/03/05 01:12:31;;;;;;;27.13;20.07;;;;;22.00;100147.00;;;;2056704;28;20219;-59
2024/03/05 01:13:32;;;;;;;27.67;19.00;;;;;22.00;100141.00;;;;2039828;28;20223;-58
2024/03/05 01:14:33;;;;;;;28.27;20.40;;;;;22.00;100146.00;;;;2050658;28;20318;-57
2024/03/05 01:15:33;;;;;;;26.20;19.83;;;;;22.00;100143.00;;;;2051999;28;20228;-58
2024/03/05 01:16:33;;;;;;;27.80;19.73;;;;;22.00;100144.00;;;;2051736;28;20223;-59
2024/03/05 01:17:34;;;;;;;29.57;21.67;;;;;22.00;100140.00;;;;2048437;28;21033;-59
2024/03/05 01:18:34;;;;;;;27.00;19.30;;;;;22.00;100144.00;;;;2041361;28;20642;-59
2024/03/05 01:19:35;;;;;;;25.73;19.50;;;;;22.00;100147.00;;;;2051658;28;20255;-59
2024/03/05 01:20:39;;;;;;;25.90;18.33;;;;;22.00;100164.00;;;;2051800;28;20231;-58
2024/03/05 01:21:41;;;;;;;27.15;20.08;;;;;22.00;100141.00;;;;2051283;28;20237;-57
2024/03/05 01:22:46;;;;;;;27.95;19.40;;;;;22.00;100139.00;;;;2057687;28;20219;-57
2024/03/05 01:23:48;;;;;;;22.15;17.83;;;;;22.00;100142.00;;;;2036099;28;20723;-58
2024/03/05 01:24:51;;;;;;;26.20;19.48;;;;;22.00;100146.00;;;;2049805;28;20219;-57
2024/03/05 01:25:52;;;;;;;25.85;18.83;;;;;22.00;100147.00;;;;2051549;28;20219;-58
2024/03/05 01:26:52;;;;;;;23.63;18.73;;;;;21.90;100146.00;;;;2052022;28;20223;-59
2024/03/05 01:27:53;;;;;;;23.77;17.83;;;;;21.90;100145.00;;;;2053598;28;20223;-58
2024/03/05 01:28:53;;;;;;;25.03;18.53;;;;;21.90;100146.00;;;;2045011;28;20623;-59
2024/03/05 01:29:53;;;;;;;25.47;18.87;;;;;21.90;100146.00;;;;2057525;28;20694;-57
2024/03/05 01:30:54;;;;;;;25.53;18.77;;;;;22.00;100145.00;;;;2049291;28;20703;-58
2024/03/05 01:31:59;;;;;;;26.27;17.40;;;;;21.90;100160.00;;;;2052748;28;20246;-59
2024/03/05 01:33:05;;;;;;;25.52;18.83;;;;;21.90;100147.00;;;;2052209;28;20295;-58
2024/03/05 01:34:05;;;;;;;25.38;18.15;;;;;21.90;100250.00;;;;2041748;28;20242;-58
2024/03/05 01:35:12;;;;;;;25.67;17.87;;;;;21.90;100146.00;;;;2051206;28;20762;-57
2024/03/05 01:36:15;;;;;;;24.63;18.25;;;;;22.00;100147.00;;;;2052461;28;20216;-59
2024/03/05 01:37:15;;;;;;;24.33;18.25;;;;;21.90;100147.00;;;;2055450;28;20557;-59
2024/03/05 01:38:17;;;;;;;24.40;18.10;;;;;21.90;100146.00;;;;2051319;28;20351;-58
2024/03/05 01:39:21;;;;;;;26.30;18.17;;;;;21.90;100149.00;;;;2045250;28;20265;-59
2024/03/05 01:40:21;;;;;;;22.80;16.50;;;;;21.90;100147.00;;;;2049012;28;20219;-59
2024/03/05 01:41:22;;;;;;;24.53;17.43;;;;;21.90;100194.00;;;;2052512;28;20232;-58
2024/03/05 01:42:23;;;;;;;24.48;17.48;;;;;21.90;100150.00;;;;2044112;28;20208;-59
2024/03/05 01:43:23;;;;;;;23.10;17.27;;;;;21.90;100147.00;;;;2041518;28;20255;-61
2024/03/05 01:44:24;;;;;;;27.10;18.03;;;;;21.90;100146.00;;;;2046159;28;20220;-58
2024/03/05 01:45:25;;;;;;;25.83;17.67;;;;;21.90;100147.00;;;;2050574;28;20578;-59
2024/03/05 01:46:26;;;;;;;24.63;17.27;;;;;21.90;100144.00;;;;2046089;28;20691;-59
2024/03/05 01:47:27;;;;;;;26.60;18.10;;;;;21.90;100151.00;;;;2054061;28;20247;-59
2024/03/05 01:48:27;;;;;;;24.47;18.07;;;;;21.90;100152.00;;;;2042219;28;20218;-59
2024/03/05 01:49:27;;;;;;;23.00;17.27;;;;;21.90;100146.00;;;;2045445;28;20220;-58
2024/03/05 01:50:28;;;;;;;25.00;17.07;;;;;21.90;100150.00;;;;2042008;28;20259;-59
2024/03/05 01:51:28;;;;;;;22.73;16.57;;;;;21.90;100151.00;;;;2051585;28;20226;-59
2024/03/05 01:52:30;;;;;;;22.67;17.00;;;;;21.90;100111.00;;;;2051086;28;20466;-61
2024/03/05 01:53:30;;;;;;;21.70;16.67;;;;;21.90;99966.00;;;;2027234;28;20240;-60
2024/03/05 01:54:30;;;;;;;22.40;17.87;;;;;21.90;100147.00;;;;2035097;28;20229;-57
2024/03/05 01:55:31;;;;;;;25.73;17.50;;;;;21.90;100138.00;;;;2050534;28;20269;-58
2024/03/05 01:56:31;;;;;;;23.20;17.80;;;;;21.80;100149.00;;;;2045603;28;20330;-58
2024/03/05 01:57:32;;;;;;;23.87;17.23;;;;;21.80;100146.00;;;;2043818;28;20782;-58
2024/03/05 01:58:32;;;;;;;24.73;16.97;;;;;21.80;100151.00;;;;2041240;28;20880;-59
2024/03/05 01:59:32;;;;;;;21.90;16.70;;;;;21.80;100145.00;;;;2051649;28;20366;-58
2024/03/05 02:00:33;;;;;;;22.83;16.70;;;;;21.80;100147.00;;;;2045036;28;20230;-59
2024/03/05 02:01:34;;;;;;;21.60;16.50;;;;;21.80;100146.00;;;;2050020;28;20223;-56
2024/03/05 02:02:34;;;;;;;23.00;15.27;;;;;21.90;100135.00;;;;2051293;28;20216;-59
2024/03/05 02:03:35;;;;;;;25.07;17.53;;;;;21.80;100148.00;;;;2040941;28;20215;-58
2024/03/05 02:04:37;;;;;;;23.60;16.20;;;;;21.90;100256.00;;;;2035404;28;20227;-56
2024/03/05 02:05:40;;;;;;;24.60;17.33;;;;;21.80;100143.00;;;;2043344;28;20472;-57
2024/03/05 02:06:41;;;;;;;24.67;17.55;;;;;21.80;100141.00;;;;2043786;28;20218;-59
2024/03/05 02:07:41;;;;;;;22.20;16.40;;;;;21.80;100139.00;;;;2053581;28;20338;-59
2024/03/05 02:08:41;;;;;;;24.43;16.73;;;;;21.80;100147.00;;;;2033324;28;20232;-57
2024/03/05 02:09:41;;;;;;;21.73;16.47;;;;;21.80;100142.00;;;;2049018;28;20263;-58
2024/03/05 02:10:42;;;;;;;20.13;15.53;;;;;21.80;100147.00;;;;2051533;28;20247;-59
2024/03/05 02:11:42;;;;;;;22.23;15.43;;;;;21.80;100145.00;;;;2043964;28;20239;-57
2024/03/05 02:12:42;;;;;;;22.07;15.67;;;;;21.80;100140.00;;;;2065174;28;20724;-58
2024/03/05 02:13:43;;;;;;;21.00;15.70;;;;;21.80;100138.00;;;;2056145;28;20234;-58
2024/03/05 02:14:43;;;;;;;23.63;15.90;;;;;21.80;100142.00;;;;2048762;28;20215;-58
2024/03/05 02:15:44;;;;;;;22.80;16.53;;;;;21.80;100143.00;;;;2035510;29;20233;-57
2024/03/05 02:16:45;;;;;;;25.60;16.00;;;;;21.80;100133.00;;;;2042022;28;20228;-57
2024/03/05 02:17:46;;;;;;;19.85;14.85;;;;;21.80;100138.00;;;;2042389;28;20951;-58
2024/03/05 02:18:46;;;;;;;19.77;16.17;;;;;21.80;100137.00;;;;2042882;28;20234;-57
2024/03/05 02:19:47;;;;;;;20.97;15.60;;;;;21.80;100067.00;;;;2052451;28;20263;-58
2024/03/05 02:20:47;;;;;;;22.07;14.77;;;;;21.80;100141.00;;;;2036084;28;20213;-58
2024/03/05 02:21:48;;;;;;;23.63;15.07;;;;;21.80;100147.00;;;;2050351;28;20471;-58
2024/03/05 02:22:48;;;;;;;19.87;15.37;;;;;21.80;100148.00;;;;2067488;28;20260;-58
2024/03/05 02:23:48;;;;;;;24.47;15.97;;;;;21.80;100131.00;;;;2032335;28;20331;-58
2024/03/05 02:24:49;;;;;;;20.67;15.33;;;;;21.80;100160.00;;;;2046783;28;20223;-58
2024/03/05 02:25:49;;;;;;;22.03;16.00;;;;;21.80;100138.00;;;;2050662;28;20224;-56
2024/03/05 02:26:50;;;;;;;21.93;15.20;;;;;21.80;100083.00;;;;2054864;28;20914;-58
2024/03/05 02:27:50;;;;;;;21.60;15.03;;;;;21.80;100130.00;;;;2035913;28;20257;-58
2024/03/05 02:28:51;;;;;;;21.90;15.13;;;;;21.80;100136.00;;;;2025995;28;20460;-58
2024/03/05 02:29:51;;;;;;;21.10;15.50;;;;;21.80;100101.00;;;;2045754;28;20283;-59
2024/03/05 02:30:51;;;;;;;22.07;15.80;;;;;21.80;100129.00;;;;2051230;28;20224;-59
2024/03/05 02:31:52;;;;;;;21.00;14.20;;;;;21.80;100141.00;;;;2052727;28;20320;-58
2024/03/05 02:32:52;;;;;;;19.63;14.80;;;;;21.80;100129.00;;;;2042899;28;20212;-58
2024/03/05 02:33:53;;;;;;;20.90;14.90;;;;;21.80;100134.00;;;;2040421;28;20231;-59
2024/03/05 02:34:54;;;;;;;19.40;13.68;;;;;21.80;100143.00;;;;2065788;28;20242;-58
2024/03/05 02:35:58;;;;;;;22.10;14.33;;;;;21.80;100139.00;;;;2053835;28;20420;-57
2024/03/05 02:36:59;;;;;;;21.60;14.13;;;;;21.80;100144.00;;;;2053414;28;20216;-59
2024/03/05 02:37:59;;;;;;;23.40;15.63;;;;;21.80;100138.00;;;;2061517;28;20264;-57
2024/03/05 02:38:59;;;;;;;19.27;13.47;;;;;21.80;100140.00;;;;2042412;28;20212;-58
2024/03/05 02:40:00;;;;;;;19.73;14.73;;;;;21.80;100120.00;;;;2052605;28;20255;-59
2024/03/05 02:41:00;;;;;;;20.23;14.73;;;;;21.80;100138.00;;;;2052290;28;20750;-59
2024/03/05 02:42:01;;;;;;;21.57;15.87;;;;;21.80;100140.00;;;;2036508;29;20677;-59
2024/03/05 02:43:01;;;;;;;19.60;14.30;;;;;21.80;100134.00;;;;2043039;28;20667;-57
2024/03/05 02:44:03;;;;;;;18.27;14.07;;;;;21.80;100140.00;;;;2056796;28;20480;-58
2024/03/05 02:45:07;;;;;;;19.90;14.50;;;;;21.80;100126.00;;;;2056371;28;20284;-58
2024/03/05 02:46:07;;;;;;;21.90;14.60;;;;;21.80;100139.00;;;;2053182;28;20254;-58
2024/03/05 02:47:08;;;;;;;20.60;14.80;;;;;21.80;100133.00;;;;2045235;28;20295;-58
2024/03/05 02:48:09;;;;;;;24.77;13.87;;;;;21.80;100134.00;;;;2051662;28;20269;-58
2024/03/05 02:49:11;;;;;;;19.47;14.50;;;;;21.80;100132.00;;;;2042876;28;20218;-59
2024/03/05 02:50:12;;;;;;;21.40;14.57;;;;;21.70;100175.00;;;;2052544;28;20450;-58
2024/03/05 02:51:14;;;;;;;19.73;14.05;;;;;21.70;100149.00;;;;2066727;28;20723;-58
2024/03/05 02:52:15;;;;;;;21.67;13.87;;;;;21.80;100144.00;;;;2060724;28;20211;-58
2024/03/05 02:53:17;;;;;;;18.63;13.13;;;;;21.70;100140.00;;;;2053683;28;20719;-59
2024/03/05 02:54:17;;;;;;;20.33;13.85;;;;;21.70;100143.00;;;;2051357;28;20266;-59
2024/03/05 02:55:17;;;;;;;19.43;15.07;;;;;21.70;100123.00;;;;2036824;28;20289;-58
2024/03/05 02:56:18;;;;;;;21.57;14.70;;;;;21.70;100130.00;;;;2024892;28;20547;-59
2024/03/05 02:57:18;;;;;;;22.40;14.50;;;;;21.70;100131.00;;;;2048192;28;20333;-57
2024/03/05 02:58:20;;;;;;;20.40;13.50;;;;;21.70;100128.00;;;;2054407;28;20203;-59
2024/03/05 02:59:20;;;;;;;21.30;13.95;;;;;21.70;100129.00;;;;2040282;28;20203;-57
2024/03/05 03:00:20;;;;;;;17.07;12.90;;;;;21.70;100129.00;;;;2052119;28;20214;-58
2024/03/05 03:01:21;;;;;;;21.17;14.33;;;;;21.70;100122.00;;;;2049648;28;20207;-59
2024/03/05 03:02:21;;;;;;;19.80;13.70;;;;;21.70;100126.00;;;;2055362;28;20617;-59
2024/03/05 03:03:22;;;;;;;21.87;14.30;;;;;21.70;100124.00;;;;2054317;28;20222;-59
2024/03/05 03:04:22;;;;;;;19.90;14.73;;;;;21.70;100117.00;;;;2043396;28;20216;-57
2024/03/05 03:05:22;;;;;;;17.27;12.83;;;;;21.70;100126.00;;;;2050200;28;20278;-59
2024/03/05 03:06:23;;;;;;;20.50;13.93;;;;;21.70;100124.00;;;;2056843;28;20207;-57
2024/03/05 03:07:23;;;;;;;21.40;14.30;;;;;21.70;100116.00;;;;2054557;28;20719;-58
2024/03/05 03:08:23;;;;;;;20.30;13.90;;;;;21.70;100164.00;;;;2050641;28;21230;-61
2024/03/05 03:09:24;;;;;;;20.60;14.17;;;;;21.70;100122.00;;;;2050455;28;20869;-58
2024/03/05 03:10:24;;;;;;;17.70;13.13;;;;;21.70;100123.00;;;;2054553;28;20231;-58
2024/03/05 03:11:24;;;;;;;18.80;13.67;;;;;21.70;100120.00;;;;2051829;28;20341;-58
2024/03/05 03:12:26;;;;;;;17.20;12.60;;;;;21.70;100125.00;;;;2052973;28;20242;-57
2024/03/05 03:13:26;;;;;;;17.33;12.27;;;;;21.70;100125.00;;;;2043176;28;20216;-58
2024/03/05 03:14:26;;;;;;;22.10;13.83;;;;;21.70;100123.00;;;;2051491;28;20229;-59
2024/03/05 03:15:29;;;;;;;18.13;13.23;;;;;21.70;100116.00;;;;2048871;28;20231;-59
2024/03/05 03:16:30;;;;;;;19.55;13.75;;;;;21.70;100111.00;;;;2049156;28;20247;-57
2024/03/05 03:17:30;;;;;;;18.15;13.40;;;;;21.70;100117.00;;;;2041081;28;20298;-59
2024/03/05 03:18:31;;;;;;;19.43;13.70;;;;;21.70;100119.00;;;;2042045;28;20258;-58
2024/03/05 03:19:32;;;;;;;21.88;12.93;;;;;21.70;100121.00;;;;2058730;28;20278;-58
2024/03/05 03:20:32;;;;;;;20.23;13.40;;;;;21.70;100122.00;;;;2045775;28;21104;-57
2024/03/05 03:21:33;;;;;;;16.90;11.63;;;;;21.70;100130.00;;;;2053493;28;20231;-59
2024/03/05 03:22:33;;;;;;;20.73;14.80;;;;;21.70;100128.00;;;;2052526;28;20226;-58
2024/03/05 03:23:34;;;;;;;21.93;14.07;;;;;21.70;100128.00;;;;2045891;28;20254;-57
2024/03/05 03:24:34;;;;;;;17.50;11.80;;;;;21.70;100135.00;;;;2053920;28;21011;-58
2024/03/05 03:25:35;;;;;;;17.73;12.70;;;;;21.70;100122.00;;;;2050739;28;20223;-58
2024/03/05 03:26:35;;;;;;;18.13;12.80;;;;;21.60;100122.00;;;;2053145;28;20330;-58
2024/03/05 03:27:36;;;;;;;17.33;12.07;;;;;21.70;100126.00;;;;2053001;28;20634;-59
2024/03/05 03:28:37;;;;;;;16.00;12.00;;;;;21.60;100128.00;;;;2045852;28;20303;-58
2024/03/05 03:29:40;;;;;;;19.33;13.57;;;;;21.60;100122.00;;;;2053438;28;20223;-58
2024/03/05 03:30:40;;;;;;;19.90;13.52;;;;;21.60;100126.00;;;;2053173;28;20277;-58
2024/03/05 03:31:45;;;;;;;21.27;14.17;;;;;21.60;100113.00;;;;2055641;28;20255;-58
2024/03/05 03:32:46;;;;;;;16.45;12.07;;;;;21.60;100120.00;;;;2065248;28;20224;-59
2024/03/05 03:33:46;;;;;;;19.80;12.93;;;;;21.70;100132.00;;;;2047852;28;20277;-58
2024/03/05 03:34:47;;;;;;;18.37;13.00;;;;;21.60;100135.00;;;;2051557;28;20627;-58
2024/03/05 03:35:47;;;;;;;19.37;12.80;;;;;21.70;100147.00;;;;2058055;28;20586;-59
2024/03/05 03:36:47;;;;;;;17.10;12.00;;;;;21.70;100130.00;;;;2052462;28;20287;-59
2024/03/05 03:37:48;;;;;;;17.70;13.37;;;;;21.60;100134.00;;;;2060924;28;20235;-57
2024/03/05 03:38:48;;;;;;;20.30;12.70;;;;;21.70;100131.00;;;;2043594;28;20318;-58
2024/03/05 03:39:48;;;;;;;18.53;12.00;;;;;21.60;100124.00;;;;2055467;28;20219;-58
2024/03/05 03:40:49;;;;;;;15.83;12.80;;;;;21.70;100131.00;;;;2060214;28;20215;-58
2024/03/05 03:41:55;;;;;;;18.33;11.80;;;;;21.70;100130.00;;;;2036233;28;20254;-58
2024/03/05 03:42:55;;;;;;;18.13;11.90;;;;;21.60;100126.00;;;;2037439;28;20217;-57
2024/03/05 03:43:56;;;;;;;17.37;11.90;;;;;21.60;100134.00;;;;2032187;28;20917;-59
2024/03/05 03:44:56;;;;;;;20.27;13.30;;;;;21.60;100125.00;;;;2051918;28;21045;-58
2024/03/05 03:45:56;;;;;;;19.87;13.53;;;;;21.60;100131.00;;;;2051596;28;20232;-57
2024/03/05 03:46:58;;;;;;;17.83;12.17;;;;;21.60;100124.00;;;;2052538;28;20258;-56
2024/03/05 03:47:58;;;;;;;16.00;11.63;;;;;21.60;100130.00;;;;2055079;28;20255;-58
2024/03/05 03:48:58;;;;;;;18.07;12.37;;;;;21.60;100128.00;;;;2043343;28;20282;-58
2024/03/05 03:49:59;;;;;;;16.70;11.63;;;;;21.60;100123.00;;;;2062732;28;20233;-58
2024/03/05 03:50:59;;;;;;;15.73;12.70;;;;;21.60;100129.00;;;;2058531;28;20227;-58
2024/03/05 03:51:59;;;;;;;17.67;13.37;;;;;21.60;100128.00;;;;2056425;28;20226;-58
2024/03/05 03:53:00;;;;;;;17.47;12.70;;;;;21.60;100126.00;;;;2052450;28;20243;-58
2024/03/05 03:54:00;;;;;;;16.60;11.43;;;;;21.60;100123.00;;;;2041611;28;20557;-58
2024/03/05 03:55:01;;;;;;;18.87;12.83;;;;;21.60;100122.00;;;;2059512;28;20929;-59
2024/03/05 03:56:01;;;;;;;16.47;12.17;;;;;21.60;100124.00;;;;2050106;28;20235;-56
2024/03/05 03:57:02;;;;;;;18.50;12.17;;;;;21.60;100127.00;;;;2053270;28;20215;-58
2024/03/05 03:58:03;;;;;;;16.53;11.17;;;;;21.60;100123.00;;;;2053889;28;20635;-58
2024/03/05 03:59:03;;;;;;;15.15;10.77;;;;;20.90;100126.00;;;;2042533;28;21992;-58
2024/03/05 04:00:16;;;;;;;15.90;12.17;;;;;21.60;100124.00;;;;2054269;28;20219;-57
2024/03/05 04:01:18;;;;;;;16.95;11.85;;;;;21.60;100122.00;;;;2051612;28;20223;-59
2024/03/05 04:02:22;;;;;;;16.35;11.75;;;;;21.60;100124.00;;;;2054345;28;20247;-59
2024/03/05 04:03:22;;;;;;;16.25;11.30;;;;;21.60;100123.00;;;;2060927;28;20567;-58
2024/03/05 04:04:23;;;;;;;18.13;11.70;;;;;21.60;100127.00;;;;2051501;28;20286;-59
2024/03/05 04:05:24;;;;;;;18.55;11.85;;;;;21.60;100120.00;;;;2059915;28;20273;-57
2024/03/05 04:06:25;;;;;;;15.00;11.23;;;;;21.60;100127.00;;;;2060905;28;20308;-57
2024/03/05 04:07:26;;;;;;;14.97;11.17;;;;;21.60;100132.00;;;;2060817;28;20546;-59
2024/03/05 04:08:27;;;;;;;17.75;11.05;;;;;21.60;100137.00;;;;2042974;28;20749;-58
2024/03/05 04:09:27;;;;;;;16.73;11.73;;;;;21.60;100127.00;;;;2055320;28;20241;-58
2024/03/05 04:10:27;;;;;;;18.73;11.53;;;;;21.60;100123.00;;;;2058047;28;20207;-59
2024/03/05 04:11:28;;;;;;;15.80;11.40;;;;;21.50;100130.00;;;;2066461;28;20218;-58
2024/03/05 04:12:28;;;;;;;19.50;11.77;;;;;21.50;100137.00;;;;2062923;28;20226;-57
2024/03/05 04:13:28;;;;;;;18.20;11.33;;;;;21.60;100136.00;;;;2042336;28;20232;-57
2024/03/05 04:14:29;;;;;;;17.20;12.50;;;;;21.60;100137.00;;;;2057100;28;20211;-58
2024/03/05 04:15:30;;;;;;;16.23;11.40;;;;;21.60;100146.00;;;;2062267;28;20248;-58
2024/03/05 04:16:30;;;;;;;15.20;11.60;;;;;21.60;100133.00;;;;2051358;28;20282;-58
2024/03/05 04:17:30;;;;;;;16.97;11.60;;;;;21.50;100128.00;;;;2052237;28;20711;-58
2024/03/05 04:18:31;;;;;;;16.83;11.40;;;;;21.50;100133.00;;;;2047420;28;20229;-59
2024/03/05 04:19:31;;;;;;;17.23;12.40;;;;;21.50;100133.00;;;;2066489;28;20222;-59
2024/03/05 04:20:31;;;;;;;16.47;10.73;;;;;21.50;100132.00;;;;2055655;28;20247;-59
2024/03/05 04:21:39;;;;;;;15.20;11.20;;;;;21.50;100131.00;;;;2054171;28;20223;-59
2024/03/05 04:22:40;;;;;;;15.88;10.93;;;;;21.50;100129.00;;;;2051812;28;20219;-59
2024/03/05 04:23:40;;;;;;;15.73;10.30;;;;;21.50;100128.00;;;;2039144;28;20232;-58
2024/03/05 04:24:49;;;;;;;18.93;11.20;;;;;21.50;100138.00;;;;2059142;28;20705;-57
2024/03/05 04:25:50;;;;;;;17.70;11.25;;;;;21.50;100138.00;;;;2061849;28;20268;-56
2024/03/05 04:26:53;;;;;;;16.00;11.03;;;;;21.50;100132.00;;;;2053064;28;20211;-57
2024/03/05 04:27:55;;;;;;;16.95;10.93;;;;;21.50;100126.00;;;;2062483;28;20245;-58
2024/03/05 04:29:00;;;;;;;17.80;11.10;;;;;21.50;100131.00;;;;2050639;28;20226;-58
2024/03/05 04:30:02;;;;;;;15.48;11.18;;;;;21.50;100123.00;;;;2059031;28;20606;-58
2024/03/05 04:31:08;;;;;;;13.25;9.43;;;;;21.50;100135.00;;;;2053119;28;20259;-59
2024/03/05 04:32:08;;;;;;;16.20;10.55;;;;;21.50;100129.00;;;;2047499;28;20288;-59
2024/03/05 04:33:15;;;;;;;15.90;11.30;;;;;21.50;100136.00;;;;2060681;28;20276;-58
2024/03/05 04:34:18;;;;;;;17.40;11.85;;;;;20.80;100136.00;;;;2042088;28;20895;-58
2024/03/05 04:35:19;;;;;;;15.88;11.18;;;;;21.50;100141.00;;;;2040355;28;20216;-59
2024/03/05 04:36:20;;;;;;;14.23;9.70;;;;;21.50;100080.00;;;;2053763;28;20622;-59
2024/03/05 04:37:20;;;;;;;15.10;10.60;;;;;21.50;100142.00;;;;2054916;28;20286;-59
2024/03/05 04:38:21;;;;;;;14.93;10.27;;;;;21.50;100139.00;;;;2054011;28;20451;-58
2024/03/05 04:39:22;;;;;;;15.73;10.80;;;;;21.50;100147.00;;;;2041838;28;20314;-60
2024/03/05 04:40:22;;;;;;;13.50;10.70;;;;;21.50;100124.00;;;;2051073;28;20215;-59
2024/03/05 04:41:22;;;;;;;14.27;10.30;;;;;21.50;100135.00;;;;2051600;28;20219;-59
2024/03/05 04:42:24;;;;;;;17.10;11.83;;;;;21.20;100144.00;;;;2050290;28;20286;-59
2024/03/05 04:43:25;;;;;;;15.18;9.75;;;;;21.50;100139.00;;;;2043411;28;20239;-59
2024/03/05 04:44:28;;;;;;;17.30;10.90;;;;;21.50;100141.00;;;;2046771;28;20212;-59
2024/03/05 04:45:29;;;;;;;16.25;10.95;;;;;21.50;100133.00;;;;2054628;28;20459;-59
2024/03/05 04:46:29;;;;;;;16.37;10.10;;;;;21.50;100144.00;;;;2051364;28;20218;-59
2024/03/05 04:47:30;;;;;;;15.47;9.83;;;;;21.50;100144.00;;;;2051269;28;20203;-58
2024/03/05 04:48:30;;;;;;;15.63;10.30;;;;;21.50;100144.00;;;;2042495;28;20208;-59
2024/03/05 04:49:31;;;;;;;15.20;10.70;;;;;21.50;100146.00;;;;2046587;28;20230;-58
2024/03/05 04:50:31;;;;;;;14.23;10.07;;;;;21.50;100147.00;;;;2054537;28;20230;-58
2024/03/05 04:51:34;;;;;;;14.60;10.47;;;;;21.50;100147.00;;;;2058290;28;20608;-58
2024/03/05 04:52:35;;;;;;;14.35;10.23;;;;;21.50;100148.00;;;;2046154;28;20692;-59
2024/03/05 04:53:36;;;;;;;14.27;9.53;;;;;21.50;100155.00;;;;2034488;28;20239;-58
2024/03/05 04:54:37;;;;;;;15.17;9.83;;;;;21.50;100147.00;;;;2066485;28;20507;-59